sensor_id;sensor_type;location;lat;lon;timestamp;P1;durP1;ratioP1;P2;durP2;ratioP2
10339;SDS011;5215;48.676;9.022;2022-08-16T00:00:32;4.30;;;2.63;;
10339;SDS011;5215;48.676;9.022;2022-08-16T00:03:00;3.20;;;2.70;;
10339;SDS011;5215;48.676;9.022;2022-08-16T00:05:28;3.17;;;2.88;;
10339;SDS011;5215;48.676;9.022;2022-08-16T00:07:56;3.30;;;3.00;;
10339;SDS011;5215;48.676;9.022;2022-08-16T00:10:24;4.05;;;2.72;;
10339;SDS011;5215;48.676;9.022;2022-08-16T00:12:50;4.55;;;2.58;;
10339;SDS011;5215;48.676;9.022;2022-08-16T00:15:18;3.38;;;3.08;;
10339;SDS011;5215;48.676;9.022;2022-08-16T00:17:45;2.97;;;2.75;;
10339;SDS011;5215;48.676;9.022;2022-08-16T00:20:11;2.65;;;2.45;;
10339;SDS011;5215;48.676;9.022;2022-08-16T00:22:39;2.90;;;2.70;;
10339;SDS011;5215;48.676;9.022;2022-08-16T00:25:08;3.17;;;2.90;;
10339;SDS011;5215;48.676;9.022;2022-08-16T00:27:35;3.78;;;2.55;;
10339;SDS011;5215;48.676;9.022;2022-08-16T00:30:02;3.08;;;2.78;;
10339;SDS011;5215;48.676;9.022;2022-08-16T00:32:29;3.33;;;2.63;;
10339;SDS011;5215;48.676;9.022;2022-08-16T00:34:55;2.85;;;2.63;;
10339;SDS011;5215;48.676;9.022;2022-08-16T00:37:22;3.30;;;3.00;;
10339;SDS011;5215;48.676;9.022;2022-08-16T00:39:48;3.42;;;2.58;;
10339;SDS011;5215;48.676;9.022;2022-08-16T00:42:16;3.25;;;2.72;;
10339;SDS011;5215;48.676;9.022;2022-08-16T00:44:44;3.70;;;3.10;;
10339;SDS011;5215;48.676;9.022;2022-08-16T00:47:11;3.17;;;2.88;;
10339;SDS011;5215;48.676;9.022;2022-08-16T00:49:41;4.22;;;2.95;;
10339;SDS011;5215;48.676;9.022;2022-08-16T00:52:08;3.00;;;2.72;;
10339;SDS011;5215;48.676;9.022;2022-08-16T00:54:34;5.00;;;2.85;;
10339;SDS011;5215;48.676;9.022;2022-08-16T00:57:01;5.65;;;3.28;;
10339;SDS011;5215;48.676;9.022;2022-08-16T00:59:33;3.22;;;2.78;;
10339;SDS011;5215;48.676;9.022;2022-08-16T01:02:00;2.90;;;2.70;;
10339;SDS011;5215;48.676;9.022;2022-08-16T01:04:26;6.07;;;2.95;;
10339;SDS011;5215;48.676;9.022;2022-08-16T01:06:53;3.72;;;3.17;;
10339;SDS011;5215;48.676;9.022;2022-08-16T01:09:20;4.47;;;3.10;;
10339;SDS011;5215;48.676;9.022;2022-08-16T01:11:47;3.55;;;3.03;;
10339;SDS011;5215;48.676;9.022;2022-08-16T01:14:15;3.78;;;3.22;;
10339;SDS011;5215;48.676;9.022;2022-08-16T01:16:44;4.57;;;3.10;;
10339;SDS011;5215;48.676;9.022;2022-08-16T01:19:13;3.30;;;3.00;;
10339;SDS011;5215;48.676;9.022;2022-08-16T01:21:43;3.35;;;3.05;;
10339;SDS011;5215;48.676;9.022;2022-08-16T01:24:16;4.82;;;3.30;;
10339;SDS011;5215;48.676;9.022;2022-08-16T01:26:43;3.58;;;2.90;;
10339;SDS011;5215;48.676;9.022;2022-08-16T01:29:12;3.42;;;3.13;;
10339;SDS011;5215;48.676;9.022;2022-08-16T01:31:40;4.22;;;3.25;;
10339;SDS011;5215;48.676;9.022;2022-08-16T01:34:06;3.30;;;2.95;;
10339;SDS011;5215;48.676;9.022;2022-08-16T01:36:33;5.28;;;3.25;;
10339;SDS011;5215;48.676;9.022;2022-08-16T01:39:00;3.90;;;3.22;;
10339;SDS011;5215;48.676;9.022;2022-08-16T01:41:34;3.33;;;3.03;;
10339;SDS011;5215;48.676;9.022;2022-08-16T01:44:01;4.85;;;3.03;;
10339;SDS011;5215;48.676;9.022;2022-08-16T01:46:29;5.63;;;2.90;;
10339;SDS011;5215;48.676;9.022;2022-08-16T01:48:56;3.88;;;3.10;;
10339;SDS011;5215;48.676;9.022;2022-08-16T01:51:23;3.38;;;3.08;;
10339;SDS011;5215;48.676;9.022;2022-08-16T01:53:51;3.28;;;2.83;;
10339;SDS011;5215;48.676;9.022;2022-08-16T01:56:17;5.22;;;3.30;;
10339;SDS011;5215;48.676;9.022;2022-08-16T01:58:45;3.05;;;2.80;;
10339;SDS011;5215;48.676;9.022;2022-08-16T02:01:12;3.33;;;2.65;;
10339;SDS011;5215;48.676;9.022;2022-08-16T02:03:38;3.85;;;2.80;;
10339;SDS011;5215;48.676;9.022;2022-08-16T02:06:05;3.83;;;2.67;;
10339;SDS011;5215;48.676;9.022;2022-08-16T02:08:31;3.90;;;2.78;;
10339;SDS011;5215;48.676;9.022;2022-08-16T02:10:58;3.53;;;2.92;;
10339;SDS011;5215;48.676;9.022;2022-08-16T02:13:24;3.05;;;2.75;;
10339;SDS011;5215;48.676;9.022;2022-08-16T02:15:52;3.53;;;3.03;;
10339;SDS011;5215;48.676;9.022;2022-08-16T02:18:19;3.10;;;2.75;;
10339;SDS011;5215;48.676;9.022;2022-08-16T02:20:46;3.42;;;3.13;;
10339;SDS011;5215;48.676;9.022;2022-08-16T02:23:14;4.07;;;3.10;;
10339;SDS011;5215;48.676;9.022;2022-08-16T02:25:42;3.30;;;3.00;;
10339;SDS011;5215;48.676;9.022;2022-08-16T02:28:08;4.93;;;3.00;;
10339;SDS011;5215;48.676;9.022;2022-08-16T02:30:35;3.83;;;2.90;;
10339;SDS011;5215;48.676;9.022;2022-08-16T02:33:03;3.45;;;2.75;;
10339;SDS011;5215;48.676;9.022;2022-08-16T02:35:30;3.63;;;3.10;;
10339;SDS011;5215;48.676;9.022;2022-08-16T02:37:57;4.85;;;3.42;;
10339;SDS011;5215;48.676;9.022;2022-08-16T02:40:24;3.50;;;3.00;;
10339;SDS011;5215;48.676;9.022;2022-08-16T02:42:51;4.38;;;3.00;;
10339;SDS011;5215;48.676;9.022;2022-08-16T02:45:18;3.38;;;3.08;;
10339;SDS011;5215;48.676;9.022;2022-08-16T02:47:45;4.95;;;3.25;;
10339;SDS011;5215;48.676;9.022;2022-08-16T02:50:13;3.80;;;2.85;;
10339;SDS011;5215;48.676;9.022;2022-08-16T02:52:39;6.03;;;3.08;;
10339;SDS011;5215;48.676;9.022;2022-08-16T02:55:06;3.28;;;2.97;;
10339;SDS011;5215;48.676;9.022;2022-08-16T02:57:33;4.75;;;3.78;;
10339;SDS011;5215;48.676;9.022;2022-08-16T02:59:59;3.97;;;3.58;;
10339;SDS011;5215;48.676;9.022;2022-08-16T03:02:29;4.47;;;3.20;;
10339;SDS011;5215;48.676;9.022;2022-08-16T03:04:55;3.83;;;3.35;;
10339;SDS011;5215;48.676;9.022;2022-08-16T03:07:23;4.47;;;3.03;;
10339;SDS011;5215;48.676;9.022;2022-08-16T03:09:50;3.45;;;3.15;;
10339;SDS011;5215;48.676;9.022;2022-08-16T03:12:16;4.78;;;3.05;;
10339;SDS011;5215;48.676;9.022;2022-08-16T03:14:43;3.22;;;2.92;;
10339;SDS011;5215;48.676;9.022;2022-08-16T03:17:09;3.20;;;2.90;;
10339;SDS011;5215;48.676;9.022;2022-08-16T03:19:36;4.65;;;2.97;;
10339;SDS011;5215;48.676;9.022;2022-08-16T03:22:02;4.85;;;3.47;;
10339;SDS011;5215;48.676;9.022;2022-08-16T03:24:30;5.18;;;3.63;;
10339;SDS011;5215;48.676;9.022;2022-08-16T03:26:56;3.03;;;2.60;;
10339;SDS011;5215;48.676;9.022;2022-08-16T03:29:23;6.55;;;3.22;;
10339;SDS011;5215;48.676;9.022;2022-08-16T03:31:51;4.00;;;3.50;;
10339;SDS011;5215;48.676;9.022;2022-08-16T03:34:17;3.83;;;2.95;;
10339;SDS011;5215;48.676;9.022;2022-08-16T03:36:44;4.78;;;3.17;;
10339;SDS011;5215;48.676;9.022;2022-08-16T03:39:10;4.00;;;3.60;;
10339;SDS011;5215;48.676;9.022;2022-08-16T03:41:38;3.38;;;3.05;;
10339;SDS011;5215;48.676;9.022;2022-08-16T03:44:05;4.13;;;3.20;;
10339;SDS011;5215;48.676;9.022;2022-08-16T03:46:31;3.70;;;3.28;;
10339;SDS011;5215;48.676;9.022;2022-08-16T03:48:58;4.70;;;3.38;;
10339;SDS011;5215;48.676;9.022;2022-08-16T03:51:24;4.03;;;3.25;;
10339;SDS011;5215;48.676;9.022;2022-08-16T03:53:51;5.57;;;3.45;;
10339;SDS011;5215;48.676;9.022;2022-08-16T03:56:17;3.80;;;3.15;;
10339;SDS011;5215;48.676;9.022;2022-08-16T03:58:45;4.28;;;3.50;;
10339;SDS011;5215;48.676;9.022;2022-08-16T04:01:12;3.45;;;3.15;;
10339;SDS011;5215;48.676;9.022;2022-08-16T04:03:38;3.70;;;3.33;;
10339;SDS011;5215;48.676;9.022;2022-08-16T04:06:05;3.70;;;3.15;;
10339;SDS011;5215;48.676;9.022;2022-08-16T04:08:31;6.10;;;3.08;;
10339;SDS011;5215;48.676;9.022;2022-08-16T04:10:58;4.13;;;2.80;;
10339;SDS011;5215;48.676;9.022;2022-08-16T04:13:24;6.28;;;3.25;;
10339;SDS011;5215;48.676;9.022;2022-08-16T04:15:53;3.60;;;3.30;;
10339;SDS011;5215;48.676;9.022;2022-08-16T04:18:23;3.70;;;3.40;;
10339;SDS011;5215;48.676;9.022;2022-08-16T04:20:49;4.32;;;3.17;;
10339;SDS011;5215;48.676;9.022;2022-08-16T04:23:16;5.55;;;3.20;;
10339;SDS011;5215;48.676;9.022;2022-08-16T04:25:42;4.50;;;3.53;;
10339;SDS011;5215;48.676;9.022;2022-08-16T04:28:09;3.45;;;3.15;;
10339;SDS011;5215;48.676;9.022;2022-08-16T04:30:35;5.05;;;3.28;;
10339;SDS011;5215;48.676;9.022;2022-08-16T04:33:03;5.15;;;3.20;;
10339;SDS011;5215;48.676;9.022;2022-08-16T04:35:29;4.00;;;3.40;;
10339;SDS011;5215;48.676;9.022;2022-08-16T04:37:55;4.18;;;3.20;;
10339;SDS011;5215;48.676;9.022;2022-08-16T04:40:22;3.78;;;3.30;;
10339;SDS011;5215;48.676;9.022;2022-08-16T04:42:50;3.00;;;2.70;;
10339;SDS011;5215;48.676;9.022;2022-08-16T04:45:18;4.15;;;3.25;;
10339;SDS011;5215;48.676;9.022;2022-08-16T04:47:44;5.95;;;3.20;;
10339;SDS011;5215;48.676;9.022;2022-08-16T04:50:13;4.32;;;3.28;;
10339;SDS011;5215;48.676;9.022;2022-08-16T04:52:39;4.28;;;3.35;;
10339;SDS011;5215;48.676;9.022;2022-08-16T04:55:07;4.75;;;3.33;;
10339;SDS011;5215;48.676;9.022;2022-08-16T04:57:34;4.25;;;3.55;;
10339;SDS011;5215;48.676;9.022;2022-08-16T05:00:00;3.85;;;3.25;;
10339;SDS011;5215;48.676;9.022;2022-08-16T05:02:27;3.88;;;3.13;;
10339;SDS011;5215;48.676;9.022;2022-08-16T05:04:53;3.92;;;3.17;;
10339;SDS011;5215;48.676;9.022;2022-08-16T05:07:21;3.28;;;3.08;;
10339;SDS011;5215;48.676;9.022;2022-08-16T05:09:47;6.38;;;3.50;;
10339;SDS011;5215;48.676;9.022;2022-08-16T05:12:14;3.42;;;3.00;;
10339;SDS011;5215;48.676;9.022;2022-08-16T05:14:40;4.22;;;3.28;;
10339;SDS011;5215;48.676;9.022;2022-08-16T05:17:06;3.92;;;2.83;;
10339;SDS011;5215;48.676;9.022;2022-08-16T05:19:33;3.53;;;3.20;;
10339;SDS011;5215;48.676;9.022;2022-08-16T05:21:59;4.35;;;3.30;;
10339;SDS011;5215;48.676;9.022;2022-08-16T05:24:27;3.55;;;3.25;;
10339;SDS011;5215;48.676;9.022;2022-08-16T05:26:53;3.58;;;3.10;;
10339;SDS011;5215;48.676;9.022;2022-08-16T05:29:19;4.13;;;3.40;;
10339;SDS011;5215;48.676;9.022;2022-08-16T05:31:46;4.82;;;3.10;;
10339;SDS011;5215;48.676;9.022;2022-08-16T05:34:12;3.58;;;3.28;;
10339;SDS011;5215;48.676;9.022;2022-08-16T05:36:39;3.72;;;3.25;;
10339;SDS011;5215;48.676;9.022;2022-08-16T05:39:05;4.70;;;3.33;;
10339;SDS011;5215;48.676;9.022;2022-08-16T05:41:33;4.22;;;3.22;;
10339;SDS011;5215;48.676;9.022;2022-08-16T05:44:00;3.00;;;2.70;;
10339;SDS011;5215;48.676;9.022;2022-08-16T05:46:26;6.68;;;3.50;;
10339;SDS011;5215;48.676;9.022;2022-08-16T05:48:53;3.40;;;3.10;;
10339;SDS011;5215;48.676;9.022;2022-08-16T05:51:19;4.85;;;3.22;;
10339;SDS011;5215;48.676;9.022;2022-08-16T05:53:46;4.40;;;3.60;;
10339;SDS011;5215;48.676;9.022;2022-08-16T05:56:12;4.68;;;3.25;;
10339;SDS011;5215;48.676;9.022;2022-08-16T05:58:40;3.83;;;2.90;;
10339;SDS011;5215;48.676;9.022;2022-08-16T06:01:06;3.97;;;2.85;;
10339;SDS011;5215;48.676;9.022;2022-08-16T06:03:33;4.15;;;3.15;;
10339;SDS011;5215;48.676;9.022;2022-08-16T06:05:59;4.18;;;3.35;;
10339;SDS011;5215;48.676;9.022;2022-08-16T06:08:26;3.88;;;3.50;;
10339;SDS011;5215;48.676;9.022;2022-08-16T06:10:52;4.40;;;3.17;;
10339;SDS011;5215;48.676;9.022;2022-08-16T06:13:19;3.78;;;3.20;;
10339;SDS011;5215;48.676;9.022;2022-08-16T06:15:47;4.05;;;3.15;;
10339;SDS011;5215;48.676;9.022;2022-08-16T06:18:16;3.35;;;2.67;;
10339;SDS011;5215;48.676;9.022;2022-08-16T06:20:42;3.63;;;2.80;;
10339;SDS011;5215;48.676;9.022;2022-08-16T06:23:08;3.63;;;3.03;;
10339;SDS011;5215;48.676;9.022;2022-08-16T06:25:35;3.20;;;2.88;;
10339;SDS011;5215;48.676;9.022;2022-08-16T06:28:02;3.67;;;3.00;;
10339;SDS011;5215;48.676;9.022;2022-08-16T06:30:28;3.13;;;2.83;;
10339;SDS011;5215;48.676;9.022;2022-08-16T06:32:57;5.43;;;3.55;;
10339;SDS011;5215;48.676;9.022;2022-08-16T06:35:25;3.65;;;3.35;;
10339;SDS011;5215;48.676;9.022;2022-08-16T06:37:51;3.03;;;2.83;;
10339;SDS011;5215;48.676;9.022;2022-08-16T06:40:17;5.53;;;3.65;;
10339;SDS011;5215;48.676;9.022;2022-08-16T06:42:44;5.43;;;2.85;;
10339;SDS011;5215;48.676;9.022;2022-08-16T06:45:10;5.05;;;3.30;;
10339;SDS011;5215;48.676;9.022;2022-08-16T06:47:37;3.60;;;3.25;;
10339;SDS011;5215;48.676;9.022;2022-08-16T06:50:05;6.72;;;3.63;;
10339;SDS011;5215;48.676;9.022;2022-08-16T06:52:31;4.75;;;3.33;;
10339;SDS011;5215;48.676;9.022;2022-08-16T06:55:01;3.80;;;3.50;;
10339;SDS011;5215;48.676;9.022;2022-08-16T06:57:27;5.15;;;3.58;;
10339;SDS011;5215;48.676;9.022;2022-08-16T06:59:53;5.05;;;3.15;;
10339;SDS011;5215;48.676;9.022;2022-08-16T07:02:20;4.38;;;3.58;;
10339;SDS011;5215;48.676;9.022;2022-08-16T07:04:46;5.97;;;3.58;;
10339;SDS011;5215;48.676;9.022;2022-08-16T07:07:14;4.22;;;3.20;;
10339;SDS011;5215;48.676;9.022;2022-08-16T07:09:40;4.18;;;3.78;;
10339;SDS011;5215;48.676;9.022;2022-08-16T07:12:07;4.10;;;3.70;;
10339;SDS011;5215;48.676;9.022;2022-08-16T07:14:33;3.88;;;3.53;;
10339;SDS011;5215;48.676;9.022;2022-08-16T07:17:00;5.18;;;3.90;;
10339;SDS011;5215;48.676;9.022;2022-08-16T07:19:27;4.40;;;3.88;;
10339;SDS011;5215;48.676;9.022;2022-08-16T07:21:56;4.90;;;3.63;;
10339;SDS011;5215;48.676;9.022;2022-08-16T07:24:24;5.97;;;3.97;;
10339;SDS011;5215;48.676;9.022;2022-08-16T07:26:50;5.03;;;4.00;;
10339;SDS011;5215;48.676;9.022;2022-08-16T07:29:16;8.15;;;4.38;;
10339;SDS011;5215;48.676;9.022;2022-08-16T07:31:43;4.55;;;4.10;;
10339;SDS011;5215;48.676;9.022;2022-08-16T07:34:09;5.18;;;3.80;;
10339;SDS011;5215;48.676;9.022;2022-08-16T07:36:35;5.45;;;4.00;;
10339;SDS011;5215;48.676;9.022;2022-08-16T07:39:02;5.30;;;4.28;;
10339;SDS011;5215;48.676;9.022;2022-08-16T07:41:30;6.22;;;4.82;;
10339;SDS011;5215;48.676;9.022;2022-08-16T07:43:57;6.10;;;4.15;;
10339;SDS011;5215;48.676;9.022;2022-08-16T07:46:24;5.22;;;4.38;;
10339;SDS011;5215;48.676;9.022;2022-08-16T07:48:50;5.97;;;4.10;;
10339;SDS011;5215;48.676;9.022;2022-08-16T07:51:16;4.22;;;3.83;;
10339;SDS011;5215;48.676;9.022;2022-08-16T07:53:43;5.47;;;4.30;;
10339;SDS011;5215;48.676;9.022;2022-08-16T07:56:15;5.32;;;4.40;;
10339;SDS011;5215;48.676;9.022;2022-08-16T07:58:43;9.10;;;4.78;;
10339;SDS011;5215;48.676;9.022;2022-08-16T08:01:09;7.75;;;4.75;;
10339;SDS011;5215;48.676;9.022;2022-08-16T08:03:37;6.30;;;4.00;;
10339;SDS011;5215;48.676;9.022;2022-08-16T08:06:04;6.45;;;4.30;;
10339;SDS011;5215;48.676;9.022;2022-08-16T08:08:30;8.45;;;4.25;;
10339;SDS011;5215;48.676;9.022;2022-08-16T08:10:57;4.80;;;4.30;;
10339;SDS011;5215;48.676;9.022;2022-08-16T08:13:23;4.88;;;3.75;;
10339;SDS011;5215;48.676;9.022;2022-08-16T08:15:51;5.63;;;3.70;;
10339;SDS011;5215;48.676;9.022;2022-08-16T08:18:17;4.85;;;3.90;;
10339;SDS011;5215;48.676;9.022;2022-08-16T08:20:44;6.88;;;3.78;;
10339;SDS011;5215;48.676;9.022;2022-08-16T08:23:11;4.78;;;4.10;;
10339;SDS011;5215;48.676;9.022;2022-08-16T08:25:37;5.38;;;4.20;;
10339;SDS011;5215;48.676;9.022;2022-08-16T08:28:03;6.18;;;4.68;;
10339;SDS011;5215;48.676;9.022;2022-08-16T08:30:30;6.90;;;4.47;;
10339;SDS011;5215;48.676;9.022;2022-08-16T08:32:58;4.82;;;3.67;;
10339;SDS011;5215;48.676;9.022;2022-08-16T08:35:25;8.52;;;4.35;;
10339;SDS011;5215;48.676;9.022;2022-08-16T08:37:51;4.68;;;4.15;;
10339;SDS011;5215;48.676;9.022;2022-08-16T08:40:19;5.45;;;3.88;;
10339;SDS011;5215;48.676;9.022;2022-08-16T08:42:46;5.85;;;4.22;;
10339;SDS011;5215;48.676;9.022;2022-08-16T08:45:12;5.57;;;4.18;;
10339;SDS011;5215;48.676;9.022;2022-08-16T08:47:41;6.38;;;4.60;;
10339;SDS011;5215;48.676;9.022;2022-08-16T08:50:10;4.72;;;3.97;;
10339;SDS011;5215;48.676;9.022;2022-08-16T08:52:36;6.55;;;4.43;;
10339;SDS011;5215;48.676;9.022;2022-08-16T08:55:04;5.25;;;4.43;;
10339;SDS011;5215;48.676;9.022;2022-08-16T08:57:30;4.38;;;3.97;;
10339;SDS011;5215;48.676;9.022;2022-08-16T08:59:57;5.00;;;3.67;;
10339;SDS011;5215;48.676;9.022;2022-08-16T09:02:23;4.85;;;4.10;;
10339;SDS011;5215;48.676;9.022;2022-08-16T09:04:50;8.30;;;4.07;;
10339;SDS011;5215;48.676;9.022;2022-08-16T09:07:17;5.75;;;4.57;;
10339;SDS011;5215;48.676;9.022;2022-08-16T09:09:46;6.97;;;4.30;;
10339;SDS011;5215;48.676;9.022;2022-08-16T09:12:12;5.13;;;4.22;;
10339;SDS011;5215;48.676;9.022;2022-08-16T09:14:39;4.80;;;3.67;;
10339;SDS011;5215;48.676;9.022;2022-08-16T09:17:07;6.38;;;3.88;;
10339;SDS011;5215;48.676;9.022;2022-08-16T09:19:34;4.70;;;3.78;;
10339;SDS011;5215;48.676;9.022;2022-08-16T09:22:02;7.20;;;3.65;;
10339;SDS011;5215;48.676;9.022;2022-08-16T09:24:30;5.30;;;4.28;;
10339;SDS011;5215;48.676;9.022;2022-08-16T09:26:56;4.22;;;3.83;;
10339;SDS011;5215;48.676;9.022;2022-08-16T09:29:23;3.78;;;3.47;;
10339;SDS011;5215;48.676;9.022;2022-08-16T09:31:49;5.82;;;4.18;;
10339;SDS011;5215;48.676;9.022;2022-08-16T09:34:16;4.15;;;3.75;;
10339;SDS011;5215;48.676;9.022;2022-08-16T09:36:42;4.03;;;3.72;;
10339;SDS011;5215;48.676;9.022;2022-08-16T09:39:09;4.40;;;3.92;;
10339;SDS011;5215;48.676;9.022;2022-08-16T09:41:36;4.32;;;3.78;;
10339;SDS011;5215;48.676;9.022;2022-08-16T09:44:03;3.95;;;3.55;;
10339;SDS011;5215;48.676;9.022;2022-08-16T09:46:31;4.00;;;3.67;;
10339;SDS011;5215;48.676;9.022;2022-08-16T09:48:57;5.78;;;3.97;;
10339;SDS011;5215;48.676;9.022;2022-08-16T09:51:24;4.32;;;3.92;;
10339;SDS011;5215;48.676;9.022;2022-08-16T09:53:51;5.40;;;3.95;;
10339;SDS011;5215;48.676;9.022;2022-08-16T09:56:19;8.98;;;3.90;;
10339;SDS011;5215;48.676;9.022;2022-08-16T09:58:50;5.22;;;3.95;;
10339;SDS011;5215;48.676;9.022;2022-08-16T10:01:17;5.00;;;3.97;;
10339;SDS011;5215;48.676;9.022;2022-08-16T10:03:43;4.15;;;3.83;;
10339;SDS011;5215;48.676;9.022;2022-08-16T10:06:09;5.28;;;3.78;;
10339;SDS011;5215;48.676;9.022;2022-08-16T10:08:36;4.18;;;3.88;;
10339;SDS011;5215;48.676;9.022;2022-08-16T10:11:02;4.97;;;3.83;;
10339;SDS011;5215;48.676;9.022;2022-08-16T10:13:45;3.85;;;3.45;;
10339;SDS011;5215;48.676;9.022;2022-08-16T10:16:13;4.85;;;3.70;;
10339;SDS011;5215;48.676;9.022;2022-08-16T10:18:40;4.95;;;3.50;;
10339;SDS011;5215;48.676;9.022;2022-08-16T10:21:07;4.90;;;3.97;;
10339;SDS011;5215;48.676;9.022;2022-08-16T10:23:33;4.13;;;3.47;;
10339;SDS011;5215;48.676;9.022;2022-08-16T10:26:00;4.32;;;3.90;;
10339;SDS011;5215;48.676;9.022;2022-08-16T10:28:27;4.60;;;3.67;;
10339;SDS011;5215;48.676;9.022;2022-08-16T10:30:54;4.25;;;3.72;;
10339;SDS011;5215;48.676;9.022;2022-08-16T10:33:21;4.32;;;3.75;;
10339;SDS011;5215;48.676;9.022;2022-08-16T10:35:48;5.95;;;4.00;;
10339;SDS011;5215;48.676;9.022;2022-08-16T10:38:14;4.45;;;3.92;;
10339;SDS011;5215;48.676;9.022;2022-08-16T10:40:41;4.55;;;3.72;;
10339;SDS011;5215;48.676;9.022;2022-08-16T10:43:07;4.30;;;3.90;;
10339;SDS011;5215;48.676;9.022;2022-08-16T10:45:34;4.60;;;3.72;;
10339;SDS011;5215;48.676;9.022;2022-08-16T10:48:00;4.00;;;3.63;;
10339;SDS011;5215;48.676;9.022;2022-08-16T10:50:28;4.43;;;3.45;;
10339;SDS011;5215;48.676;9.022;2022-08-16T10:52:55;4.47;;;3.80;;
10339;SDS011;5215;48.676;9.022;2022-08-16T10:55:22;4.30;;;3.60;;
10339;SDS011;5215;48.676;9.022;2022-08-16T10:57:48;4.80;;;3.70;;
10339;SDS011;5215;48.676;9.022;2022-08-16T11:00:15;4.85;;;3.47;;
10339;SDS011;5215;48.676;9.022;2022-08-16T11:02:42;3.70;;;3.35;;
10339;SDS011;5215;48.676;9.022;2022-08-16T11:05:09;5.65;;;4.20;;
10339;SDS011;5215;48.676;9.022;2022-08-16T11:07:39;3.78;;;3.45;;
10339;SDS011;5215;48.676;9.022;2022-08-16T11:10:07;5.20;;;3.53;;
10339;SDS011;5215;48.676;9.022;2022-08-16T11:12:34;4.50;;;3.42;;
10339;SDS011;5215;48.676;9.022;2022-08-16T11:15:00;4.80;;;3.63;;
10339;SDS011;5215;48.676;9.022;2022-08-16T11:17:26;4.15;;;3.35;;
10339;SDS011;5215;48.676;9.022;2022-08-16T11:19:53;3.88;;;3.30;;
10339;SDS011;5215;48.676;9.022;2022-08-16T11:22:19;4.03;;;3.72;;
10339;SDS011;5215;48.676;9.022;2022-08-16T11:24:47;3.63;;;3.30;;
10339;SDS011;5215;48.676;9.022;2022-08-16T11:27:14;4.03;;;3.65;;
10339;SDS011;5215;48.676;9.022;2022-08-16T11:29:41;4.00;;;3.70;;
10339;SDS011;5215;48.676;9.022;2022-08-16T11:32:07;5.03;;;3.45;;
10339;SDS011;5215;48.676;9.022;2022-08-16T11:34:34;4.05;;;3.60;;
10339;SDS011;5215;48.676;9.022;2022-08-16T11:37:00;3.63;;;3.33;;
10339;SDS011;5215;48.676;9.022;2022-08-16T11:39:27;3.30;;;3.00;;
10339;SDS011;5215;48.676;9.022;2022-08-16T11:41:55;3.60;;;3.30;;
10339;SDS011;5215;48.676;9.022;2022-08-16T11:44:22;3.50;;;3.20;;
10339;SDS011;5215;48.676;9.022;2022-08-16T11:46:48;4.45;;;3.53;;
10339;SDS011;5215;48.676;9.022;2022-08-16T11:49:15;3.67;;;3.35;;
10339;SDS011;5215;48.676;9.022;2022-08-16T11:51:42;4.55;;;3.25;;
10339;SDS011;5215;48.676;9.022;2022-08-16T11:54:09;3.50;;;3.17;;
10339;SDS011;5215;48.676;9.022;2022-08-16T11:56:35;5.25;;;3.40;;
10339;SDS011;5215;48.676;9.022;2022-08-16T11:59:03;5.05;;;3.20;;
10339;SDS011;5215;48.676;9.022;2022-08-16T12:01:29;5.35;;;3.33;;
10339;SDS011;5215;48.676;9.022;2022-08-16T12:03:56;3.40;;;3.10;;
10339;SDS011;5215;48.676;9.022;2022-08-16T12:06:22;4.18;;;3.30;;
10339;SDS011;5215;48.676;9.022;2022-08-16T12:08:49;3.83;;;3.13;;
10339;SDS011;5215;48.676;9.022;2022-08-16T12:11:15;3.30;;;3.05;;
10339;SDS011;5215;48.676;9.022;2022-08-16T12:13:42;4.65;;;3.15;;
10339;SDS011;5215;48.676;9.022;2022-08-16T12:16:11;3.45;;;3.15;;
10339;SDS011;5215;48.676;9.022;2022-08-16T12:18:38;4.82;;;3.13;;
10339;SDS011;5215;48.676;9.022;2022-08-16T12:21:05;5.70;;;3.17;;
10339;SDS011;5215;48.676;9.022;2022-08-16T12:23:32;3.60;;;3.30;;
10339;SDS011;5215;48.676;9.022;2022-08-16T12:25:58;5.40;;;3.13;;
10339;SDS011;5215;48.676;9.022;2022-08-16T12:28:25;3.30;;;3.00;;
10339;SDS011;5215;48.676;9.022;2022-08-16T12:30:51;3.13;;;2.83;;
10339;SDS011;5215;48.676;9.022;2022-08-16T12:33:19;4.00;;;2.97;;
10339;SDS011;5215;48.676;9.022;2022-08-16T12:35:46;3.63;;;3.00;;
10339;SDS011;5215;48.676;9.022;2022-08-16T12:38:13;4.40;;;3.13;;
10339;SDS011;5215;48.676;9.022;2022-08-16T12:40:40;3.08;;;2.83;;
10339;SDS011;5215;48.676;9.022;2022-08-16T12:43:09;3.80;;;3.25;;
10339;SDS011;5215;48.676;9.022;2022-08-16T12:45:37;3.13;;;2.70;;
10339;SDS011;5215;48.676;9.022;2022-08-16T12:48:04;4.03;;;2.90;;
10339;SDS011;5215;48.676;9.022;2022-08-16T12:50:49;3.30;;;2.97;;
10339;SDS011;5215;48.676;9.022;2022-08-16T12:53:16;3.50;;;3.20;;
10339;SDS011;5215;48.676;9.022;2022-08-16T12:55:44;3.10;;;2.90;;
10339;SDS011;5215;48.676;9.022;2022-08-16T12:58:11;3.75;;;2.88;;
10339;SDS011;5215;48.676;9.022;2022-08-16T13:00:38;4.53;;;3.20;;
10339;SDS011;5215;48.676;9.022;2022-08-16T13:03:04;3.58;;;2.97;;
10339;SDS011;5215;48.676;9.022;2022-08-16T13:05:33;4.10;;;2.83;;
10339;SDS011;5215;48.676;9.022;2022-08-16T13:08:06;3.47;;;3.15;;
10339;SDS011;5215;48.676;9.022;2022-08-16T13:10:32;3.10;;;2.90;;
10339;SDS011;5215;48.676;9.022;2022-08-16T13:12:59;4.00;;;2.70;;
10339;SDS011;5215;48.676;9.022;2022-08-16T13:15:26;3.53;;;3.22;;
10339;SDS011;5215;48.676;9.022;2022-08-16T13:17:53;3.45;;;2.92;;
10339;SDS011;5215;48.676;9.022;2022-08-16T13:20:22;4.90;;;3.20;;
10339;SDS011;5215;48.676;9.022;2022-08-16T13:22:52;2.88;;;2.67;;
10339;SDS011;5215;48.676;9.022;2022-08-16T13:25:22;3.15;;;2.92;;
10339;SDS011;5215;48.676;9.022;2022-08-16T13:27:49;4.63;;;2.92;;
10339;SDS011;5215;48.676;9.022;2022-08-16T13:30:16;4.05;;;2.95;;
10339;SDS011;5215;48.676;9.022;2022-08-16T13:32:42;3.35;;;3.00;;
10339;SDS011;5215;48.676;9.022;2022-08-16T13:35:09;5.00;;;3.33;;
10339;SDS011;5215;48.676;9.022;2022-08-16T13:37:35;3.80;;;3.00;;
10339;SDS011;5215;48.676;9.022;2022-08-16T13:40:01;3.20;;;2.90;;
10339;SDS011;5215;48.676;9.022;2022-08-16T13:42:30;4.25;;;3.10;;
10339;SDS011;5215;48.676;9.022;2022-08-16T13:44:56;5.30;;;3.25;;
10339;SDS011;5215;48.676;9.022;2022-08-16T13:47:23;3.05;;;2.85;;
10339;SDS011;5215;48.676;9.022;2022-08-16T13:49:49;3.08;;;2.80;;
10339;SDS011;5215;48.676;9.022;2022-08-16T13:52:16;2.90;;;2.60;;
10339;SDS011;5215;48.676;9.022;2022-08-16T13:54:42;4.90;;;2.90;;
10339;SDS011;5215;48.676;9.022;2022-08-16T13:57:09;3.05;;;2.72;;
10339;SDS011;5215;48.676;9.022;2022-08-16T13:59:37;4.43;;;3.10;;
10339;SDS011;5215;48.676;9.022;2022-08-16T14:02:03;3.10;;;2.90;;
10339;SDS011;5215;48.676;9.022;2022-08-16T14:04:33;3.17;;;2.88;;
10339;SDS011;5215;48.676;9.022;2022-08-16T14:07:00;3.35;;;2.92;;
10339;SDS011;5215;48.676;9.022;2022-08-16T14:09:27;4.85;;;3.03;;
10339;SDS011;5215;48.676;9.022;2022-08-16T14:11:54;3.90;;;2.90;;
10339;SDS011;5215;48.676;9.022;2022-08-16T14:14:21;3.45;;;3.15;;
10339;SDS011;5215;48.676;9.022;2022-08-16T14:16:49;4.68;;;3.08;;
10339;SDS011;5215;48.676;9.022;2022-08-16T14:19:15;4.18;;;2.88;;
10339;SDS011;5215;48.676;9.022;2022-08-16T14:21:42;5.22;;;2.88;;
10339;SDS011;5215;48.676;9.022;2022-08-16T14:24:09;4.40;;;2.92;;
10339;SDS011;5215;48.676;9.022;2022-08-16T14:26:38;4.95;;;3.90;;
10339;SDS011;5215;48.676;9.022;2022-08-16T14:29:04;3.47;;;3.22;;
10339;SDS011;5215;48.676;9.022;2022-08-16T14:31:34;3.13;;;2.90;;
10339;SDS011;5215;48.676;9.022;2022-08-16T14:34:02;3.10;;;2.53;;
10339;SDS011;5215;48.676;9.022;2022-08-16T14:36:29;3.55;;;2.75;;
10339;SDS011;5215;48.676;9.022;2022-08-16T14:38:56;2.80;;;2.58;;
10339;SDS011;5215;48.676;9.022;2022-08-16T14:41:23;3.08;;;2.78;;
10339;SDS011;5215;48.676;9.022;2022-08-16T14:43:49;4.10;;;2.92;;
10339;SDS011;5215;48.676;9.022;2022-08-16T14:46:16;3.10;;;2.78;;
10339;SDS011;5215;48.676;9.022;2022-08-16T14:48:42;3.92;;;2.85;;
10339;SDS011;5215;48.676;9.022;2022-08-16T14:51:10;3.45;;;3.00;;
10339;SDS011;5215;48.676;9.022;2022-08-16T14:53:37;3.90;;;3.00;;
10339;SDS011;5215;48.676;9.022;2022-08-16T14:56:03;3.00;;;2.75;;
10339;SDS011;5215;48.676;9.022;2022-08-16T14:58:30;3.22;;;2.75;;